TimeCDT,TemperatureF,Dew PointF,Humidity,Sea Level PressureIn,VisibilityMPH,Wind Direction,Wind SpeedMPH,Gust SpeedMPH,PrecipitationIn,Events,Conditions,WindDirDegrees,DateUTC
12:53 AM,54.0,19.9,26,29.94,10.0,South,17.3,-,N/A,,Clear,180,2014-03-30 05:53:00
1:53 AM,54.0,21.0,28,29.93,10.0,South,17.3,-,N/A,,Clear,180,2014-03-30 06:53:00
2:53 AM,53.1,21.0,29,29.92,10.0,South,19.6,-,N/A,,Clear,190,2014-03-30 07:53:00
3:53 AM,50.0,21.9,33,29.91,10.0,South,10.4,-,N/A,,Clear,180,2014-03-30 08:53:00
4:53 AM,50.0,24.1,36,29.87,10.0,South,17.3,-,N/A,,Clear,190,2014-03-30 09:53:00
5:53 AM,48.9,25.0,39,29.86,10.0,South,15.0,-,N/A,,Clear,190,2014-03-30 10:53:00
6:53 AM,52.0,26.1,37,29.84,10.0,SSW,23.0,-,N/A,,Clear,200,2014-03-30 11:53:00
7:53 AM,52.0,27.0,38,29.83,10.0,SSW,25.3,33.4,N/A,,Clear,200,2014-03-30 12:53:00
8:53 AM,57.0,28.9,34,29.83,10.0,SSW,27.6,40.3,N/A,,Clear,210,2014-03-30 13:53:00
9:53 AM,62.1,32.0,32,29.80,10.0,SSW,35.7,44.9,N/A,,Clear,210,2014-03-30 14:53:00
10:53 AM,63.0,32.0,31,29.78,10.0,SSW,34.5,42.6,N/A,,Clear,210,2014-03-30 15:53:00
11:53 AM,66.0,33.1,29,29.79,10.0,SSW,29.9,39.1,N/A,,Clear,210,2014-03-30 16:53:00
12:53 PM,73.9,33.1,22,29.74,10.0,SSW,25.3,33.4,N/A,,Clear,200,2014-03-30 17:53:00
1:53 PM,80.1,30.0,16,29.68,10.0,SW,27.6,36.8,N/A,,Clear,220,2014-03-30 18:53:00
2:53 PM,82.0,26.1,13,29.63,10.0,SW,28.8,44.9,N/A,,Clear,220,2014-03-30 19:53:00
3:53 PM,82.0,21.9,11,29.60,10.0,SSW,31.1,39.1,N/A,,Clear,210,2014-03-30 20:53:00
4:53 PM,82.0,23.0,11,29.56,10.0,SSW,27.6,39.1,N/A,,Clear,200,2014-03-30 21:53:00
5:53 PM,82.9,24.1,12,29.53,10.0,SSW,28.8,41.4,N/A,,Clear,200,2014-03-30 22:53:00
6:53 PM,79.0,27.0,15,29.52,10.0,South,21.9,32.2,N/A,,Clear,190,2014-03-30 23:53:00
7:53 PM,75.0,32.0,21,29.53,10.0,South,16.1,-,N/A,,Clear,180,2014-03-31 00:53:00
8:53 PM,71.1,32.0,24,29.52,10.0,South,15.0,-,N/A,,Clear,180,2014-03-31 01:53:00
9:53 PM,68.0,30.9,25,29.52,10.0,South,15.0,-,N/A,,Clear,180,2014-03-31 02:53:00
10:53 PM,69.1,36.0,30,29.50,10.0,South,17.3,-,N/A,,Clear,170,2014-03-31 03:53:00
11:53 PM,70.0,37.0,30,29.49,10.0,South,20.7,-,N/A,,Clear,190,2014-03-31 04:53:00